»·PEaware :: NASA408 KLAX-KDFW

NASA408 :: KLAX-KDFW

FLIGHT INFORMATION

Flight Status: Arrived
Operator: Unknown
More flights by this operator :: More flights under this callsign
Pilot: Anonymous 3903 (3903)
Aircraft: LOCKHEED SR-71 BLACKBIRD
(SR71)
More flights by this aircraft type
Origin: KLAX Los Angeles Intl
United States
Destination: KDFW Dallas-Ft Worth Intl
United States
More flights between these airports :: More routes between these airports
Route: LAXX7 IPL BZA GBN BGTOE SOCKK1
File this flight plan on PilotEdge
Remarks:
Altitude:
(Current/Filed)
80,000ft
Speed:
(Current/Filed)
1600kts
Departed: 01-Feb-15 08:29 PM
Arrived: 01-Feb-15 09:46 PM
Distance/Time
Traveled:
1070nm/1:17
Distance/Time
To Go:
Arrived

Flight Plot

Page will automatically refresh every two minutes.


Map Options




Map Legend


Flown Route
Filed Route
Departure Airport
Arrival Airport
Navaid (VOR, NDB)
Fix

Horizontal Profiles

Position Reports

Time Latitude Longitude Heading Altitude Ground
Speed
01-Feb-15 19:45 36.083548 -115.129527 89 2188ft 0kts
01-Feb-15 19:46 36.083548 -115.129526 89 2188ft 0kts
01-Feb-15 19:47 36.083548 -115.129524 89 2188ft 0kts
01-Feb-15 19:48 36.083548 -115.129523 89 2188ft 0kts
01-Feb-15 19:49 36.083548 -115.129522 89 2188ft 0kts
01-Feb-15 19:50 36.083548 -115.129520 89 2188ft 0kts
01-Feb-15 19:51 36.083548 -115.129519 89 2188ft 0kts
01-Feb-15 19:52 36.083548 -115.129518 89 2188ft 0kts
01-Feb-15 19:53 36.083548 -115.129516 89 2188ft 0kts
01-Feb-15 19:59 33.933973 -118.386081 268 133ft 0kts
01-Feb-15 20:00 33.933973 -118.386081 268 133ft 0kts
01-Feb-15 20:01 33.933973 -118.386081 268 133ft 0kts
01-Feb-15 20:02 33.933973 -118.386081 268 133ft 0kts
01-Feb-15 20:03 33.933973 -118.386081 268 133ft 0kts
01-Feb-15 20:04 33.933973 -118.386081 268 133ft 0kts
01-Feb-15 20:05 33.933973 -118.386081 268 133ft 0kts
01-Feb-15 20:06 33.933973 -118.386081 268 133ft 0kts
01-Feb-15 20:07 33.933973 -118.386081 268 133ft 0kts
01-Feb-15 20:08 33.933973 -118.386081 268 133ft 0kts
01-Feb-15 20:09 33.933973 -118.386081 268 133ft 0kts
01-Feb-15 20:10 33.933973 -118.386081 268 133ft 0kts
01-Feb-15 20:11 33.933973 -118.386081 268 133ft 0kts
01-Feb-15 20:12 33.933973 -118.386081 268 133ft 0kts
01-Feb-15 20:13 33.933973 -118.386081 268 133ft 0kts
01-Feb-15 20:14 33.933973 -118.386081 268 133ft 0kts
01-Feb-15 20:15 33.933973 -118.386081 268 133ft 0kts
01-Feb-15 20:16 33.933973 -118.386081 268 133ft 0kts
01-Feb-15 20:17 33.933973 -118.386081 268 133ft 0kts
01-Feb-15 20:18 33.933973 -118.386081 268 133ft 0kts
01-Feb-15 20:19 33.933973 -118.386081 268 133ft 0kts
01-Feb-15 20:20 33.934167 -118.386624 320 133ft 6kts
01-Feb-15 20:21 33.936028 -118.384263 81 133ft 11kts
01-Feb-15 20:22 33.936396 -118.383017 17 133ft 4kts
01-Feb-15 20:23 33.937499 -118.383698 263 133ft 0kts
01-Feb-15 20:24 33.934013 -118.416031 262 713ft 360kts
01-Feb-15 20:25 33.909747 -118.548859 242 2923ft 454kts
01-Feb-15 20:26 33.840628 -118.671189 232 5230ft 412kts
01-Feb-15 20:27 33.769140 -118.780793 231 9220ft 425kts
01-Feb-15 20:28 33.688999 -118.891054 208 13304ft 454kts
01-Feb-15 20:29 33.571070 -118.854831 137 17626ft 478kts
01-Feb-15 20:30 33.498186 -118.716862 116 21806ft 508kts
01-Feb-15 20:31 33.428825 -118.562190 117 24009ft 537kts
01-Feb-15 20:32 33.350285 -118.397446 118 24234ft 610kts
01-Feb-15 20:33 33.263413 -118.219887 118 25719ft 619kts
01-Feb-15 20:34 33.177367 -118.045541 117 29885ft 612kts
01-Feb-15 20:35 33.092323 -117.866359 116 30283ft 623kts
01-Feb-15 20:36 33.008300 -117.691000 116 33660ft 600kts
01-Feb-15 20:37 32.924850 -117.520416 115 37577ft 591kts
01-Feb-15 20:38 32.844030 -117.349167 109 40178ft 587kts
01-Feb-15 20:39 32.805043 -117.165284 92 42357ft 574kts
01-Feb-15 20:40 32.792627 -116.974281 89 42590ft 581kts
01-Feb-15 20:41 32.785901 -116.782185 88 42590ft 580kts
01-Feb-15 20:42 32.781196 -116.590023 88 42591ft 580kts
01-Feb-15 20:43 32.776739 -116.397380 87 41760ft 586kts
01-Feb-15 20:44 32.771256 -116.202246 87 40145ft 597kts
01-Feb-15 20:45 32.763808 -115.997077 87 38204ft 660kts
01-Feb-15 20:46 32.756588 -115.747615 87 38632ft 841kts
01-Feb-15 20:47 32.754013 -115.415508 87 43608ft 1155kts
01-Feb-15 20:48 32.767048 -115.066152 86 49557ft 1020kts
01-Feb-15 20:49 32.779044 -114.709316 87 55586ft 1139kts
01-Feb-15 20:50 32.801374 -114.312266 82 61603ft 1283kts
01-Feb-15 20:51 32.853774 -113.864292 80 67637ft 1455kts
01-Feb-15 20:52 32.924682 -113.362270 81 73669ft 1603kts
01-Feb-15 20:53 32.987671 -112.821659 82 79242ft 1698kts
01-Feb-15 20:54 33.045450 -112.246022 83 80195ft 1797kts
01-Feb-15 20:55 33.093894 -111.634698 87 80223ft 1899kts
01-Feb-15 20:56 33.099608 -110.989888 91 80237ft 1980kts
01-Feb-15 20:57 33.075439 -110.329186 93 80253ft 2010kts
01-Feb-15 20:58 33.034843 -109.670912 94 80247ft 1988kts
01-Feb-15 20:59 32.985525 -109.012927 94 80256ft 1990kts
01-Feb-15 21:00 32.937249 -108.355518 94 80294ft 1991kts
01-Feb-15 21:01 32.893418 -107.699538 94 80329ft 1992kts
01-Feb-15 21:02 32.853802 -107.053119 93 78923ft 1910kts
01-Feb-15 21:03 32.819476 -106.443189 93 75519ft 1748kts
01-Feb-15 21:04 32.790880 -105.887459 93 70881ft 1602kts
01-Feb-15 21:05 32.767631 -105.387027 92 65906ft 1440kts
01-Feb-15 21:06 32.746645 -104.932456 93 62317ft 1320kts
01-Feb-15 21:07 32.723013 -104.507391 93 62088ft 1280kts
01-Feb-15 21:08 32.698190 -104.083244 93 60588ft 1299kts
01-Feb-15 21:09 32.677246 -103.722782 93 58960ft 1326kts
01-Feb-15 21:10 32.651939 -103.270830 93 56788ft 1365kts
01-Feb-15 21:11 32.618463 -102.787718 96 53859ft 1211kts
01-Feb-15 21:12 32.586168 -102.458700 97 51784ft 1200kts
01-Feb-15 21:13 32.545747 -102.076080 97 49276ft 1130kts
01-Feb-15 21:14 32.508645 -101.718484 98 46894ft 1053kts
01-Feb-15 21:15 32.475898 -101.383240 97 44884ft 1003kts
01-Feb-15 21:16 32.437997 -101.062062 100 42883ft 957kts
01-Feb-15 21:17 32.395935 -100.766626 101 40884ft 871kts
01-Feb-15 21:18 32.356577 -100.493633 101 40319ft 824kts
01-Feb-15 21:19 32.318855 -100.227317 101 40448ft 816kts
01-Feb-15 21:20 32.293879 -99.960226 96 40430ft 816kts
01-Feb-15 21:21 32.279985 -99.690233 94 39985ft 831kts
01-Feb-15 21:22 32.269556 -99.421817 94 35033ft 794kts
01-Feb-15 21:23 32.260600 -99.174249 90 30024ft 711kts
01-Feb-15 21:24 32.265233 -98.952541 85 25196ft 644kts
01-Feb-15 21:25 32.272319 -98.748766 84 21223ft 601kts
01-Feb-15 21:26 32.277520 -98.556297 84 18122ft 570kts
01-Feb-15 21:27 32.281050 -98.375646 86 14650ft 493kts
01-Feb-15 21:28 32.275475 -98.223862 86 9022ft 376kts
01-Feb-15 21:29 32.273315 -98.101960 86 9222ft 424kts
01-Feb-15 21:30 32.285065 -97.955778 69 10386ft 463kts
01-Feb-15 21:31 32.323657 -97.807730 65 10446ft 473kts
01-Feb-15 21:32 32.363190 -97.658101 64 10185ft 476kts
01-Feb-15 21:33 32.407392 -97.510097 58 10671ft 470kts
01-Feb-15 21:34 32.453433 -97.362518 68 9866ft 477kts
01-Feb-15 21:35 32.502492 -97.223334 39 7531ft 421kts
01-Feb-15 21:36 32.579161 -97.126897 44 6388ft 372kts
01-Feb-15 21:37 32.643050 -97.038155 34 5389ft 324kts
01-Feb-15 21:38 32.721987 -97.029002 344 3681ft 289kts
01-Feb-15 21:39 32.797267 -97.026750 3 2492ft 250kts
01-Feb-15 21:40 32.867695 -97.026442 358 923ft 227kts
01-Feb-15 21:41 32.905386 -97.026028 0 614ft 11kts
01-Feb-15 21:42 32.909879 -97.026479 284 614ft 10kts
01-Feb-15 21:43 32.859498 -97.026351 357 1095ft 237kts
01-Feb-15 21:44 32.909916 -97.026777 274 614ft 0kts
01-Feb-15 21:45 32.909961 -97.029230 272 614ft 31kts
01-Feb-15 21:46 32.910865 -97.035089 291 614ft 14kts
01-Feb-15 21:47 32.910908 -97.035281 272 614ft 0kts
01-Feb-15 21:48 32.910908 -97.035281 272 614ft 0kts
01-Feb-15 21:49 32.910908 -97.035281 272 614ft 0kts
01-Feb-15 21:50 32.910908 -97.035281 272 614ft 0kts
01-Feb-15 21:51 32.910908 -97.035281 272 614ft 0kts
01-Feb-15 21:52 32.910908 -97.035281 272 614ft 0kts
01-Feb-15 21:53 32.910908 -97.035281 272 614ft 0kts
01-Feb-15 21:54 32.910908 -97.035281 272 614ft 0kts
01-Feb-15 21:55 32.910908 -97.035281 272 614ft 0kts

Navigation Log

Ident Type
1. KLAX Airport
2. SLI Navaid
3. KELPS Fix
4. OCN Navaid
5. VISTA Fix
6. JLI Navaid
7. KUMBA Fix
8. IPL Navaid
9. BZA Navaid
10. GBN Navaid
11. KDFW Airport